sensor_id;sensor_type;location;lat;lon;timestamp;P1;durP1;ratioP1;P2;durP2;ratioP2
59872;SDS011;50750;51.636;4.948;2023-12-29T00:01:49;4.20;;;1.40;;
59872;SDS011;50750;51.636;4.948;2023-12-29T00:04:20;6.00;;;1.30;;
59872;SDS011;50750;51.636;4.948;2023-12-29T00:06:51;4.10;;;1.10;;
59872;SDS011;50750;51.636;4.948;2023-12-29T00:09:25;4.90;;;1.20;;
59872;SDS011;50750;51.636;4.948;2023-12-29T00:11:58;4.60;;;1.40;;
59872;SDS011;50750;51.636;4.948;2023-12-29T00:14:28;5.90;;;1.40;;
59872;SDS011;50750;51.636;4.948;2023-12-29T00:16:59;5.50;;;1.50;;
59872;SDS011;50750;51.636;4.948;2023-12-29T00:19:31;4.80;;;1.30;;
59872;SDS011;50750;51.636;4.948;2023-12-29T00:22:02;4.50;;;1.10;;
59872;SDS011;50750;51.636;4.948;2023-12-29T00:24:32;4.70;;;1.30;;
59872;SDS011;50750;51.636;4.948;2023-12-29T00:27:04;4.40;;;1.40;;
59872;SDS011;50750;51.636;4.948;2023-12-29T00:29:35;7.60;;;1.40;;
59872;SDS011;50750;51.636;4.948;2023-12-29T00:32:07;6.30;;;1.50;;
59872;SDS011;50750;51.636;4.948;2023-12-29T00:34:38;7.30;;;1.40;;
59872;SDS011;50750;51.636;4.948;2023-12-29T00:37:08;6.00;;;1.30;;
59872;SDS011;50750;51.636;4.948;2023-12-29T00:39:39;4.60;;;1.20;;
59872;SDS011;50750;51.636;4.948;2023-12-29T00:42:10;5.50;;;1.40;;
59872;SDS011;50750;51.636;4.948;2023-12-29T00:44:41;4.50;;;1.20;;
59872;SDS011;50750;51.636;4.948;2023-12-29T00:47:11;5.60;;;1.30;;
59872;SDS011;50750;51.636;4.948;2023-12-29T00:49:42;3.70;;;1.20;;
59872;SDS011;50750;51.636;4.948;2023-12-29T00:52:13;7.50;;;1.70;;
59872;SDS011;50750;51.636;4.948;2023-12-29T00:54:43;4.70;;;1.20;;
59872;SDS011;50750;51.636;4.948;2023-12-29T00:57:14;5.60;;;1.40;;
59872;SDS011;50750;51.636;4.948;2023-12-29T00:59:46;4.10;;;1.10;;
59872;SDS011;50750;51.636;4.948;2023-12-29T01:02:17;4.30;;;1.30;;
59872;SDS011;50750;51.636;4.948;2023-12-29T01:04:48;4.30;;;1.20;;
59872;SDS011;50750;51.636;4.948;2023-12-29T01:07:18;5.00;;;1.40;;
59872;SDS011;50750;51.636;4.948;2023-12-29T01:09:52;3.90;;;1.20;;
59872;SDS011;50750;51.636;4.948;2023-12-29T01:12:22;3.30;;;0.90;;
59872;SDS011;50750;51.636;4.948;2023-12-29T01:14:54;4.30;;;1.10;;
59872;SDS011;50750;51.636;4.948;2023-12-29T01:17:25;3.50;;;1.10;;
59872;SDS011;50750;51.636;4.948;2023-12-29T01:19:56;5.00;;;1.30;;
59872;SDS011;50750;51.636;4.948;2023-12-29T01:22:27;3.50;;;1.10;;
59872;SDS011;50750;51.636;4.948;2023-12-29T01:24:59;5.50;;;1.20;;
59872;SDS011;50750;51.636;4.948;2023-12-29T01:27:31;6.00;;;1.50;;
59872;SDS011;50750;51.636;4.948;2023-12-29T01:30:03;4.90;;;1.10;;
59872;SDS011;50750;51.636;4.948;2023-12-29T01:32:35;5.00;;;1.30;;
59872;SDS011;50750;51.636;4.948;2023-12-29T01:35:07;4.50;;;1.40;;
59872;SDS011;50750;51.636;4.948;2023-12-29T01:37:38;4.70;;;1.40;;
59872;SDS011;50750;51.636;4.948;2023-12-29T01:40:10;4.20;;;1.10;;
59872;SDS011;50750;51.636;4.948;2023-12-29T01:42:44;3.60;;;1.10;;
59872;SDS011;50750;51.636;4.948;2023-12-29T01:45:19;5.50;;;1.20;;
59872;SDS011;50750;51.636;4.948;2023-12-29T01:47:51;4.70;;;1.30;;
59872;SDS011;50750;51.636;4.948;2023-12-29T01:50:25;3.30;;;1.10;;
59872;SDS011;50750;51.636;4.948;2023-12-29T01:52:56;4.60;;;1.20;;
59872;SDS011;50750;51.636;4.948;2023-12-29T01:55:26;3.10;;;1.30;;
59872;SDS011;50750;51.636;4.948;2023-12-29T01:57:58;4.40;;;1.30;;
59872;SDS011;50750;51.636;4.948;2023-12-29T02:00:29;4.30;;;1.20;;
59872;SDS011;50750;51.636;4.948;2023-12-29T02:03:01;4.10;;;1.10;;
59872;SDS011;50750;51.636;4.948;2023-12-29T02:05:34;3.70;;;1.20;;
59872;SDS011;50750;51.636;4.948;2023-12-29T02:08:07;5.30;;;1.60;;
59872;SDS011;50750;51.636;4.948;2023-12-29T02:10:39;6.40;;;1.60;;
59872;SDS011;50750;51.636;4.948;2023-12-29T02:13:10;5.30;;;1.20;;
59872;SDS011;50750;51.636;4.948;2023-12-29T02:15:41;3.90;;;1.10;;
59872;SDS011;50750;51.636;4.948;2023-12-29T02:18:12;4.70;;;1.40;;
59872;SDS011;50750;51.636;4.948;2023-12-29T02:20:47;3.50;;;1.20;;
59872;SDS011;50750;51.636;4.948;2023-12-29T02:23:18;6.30;;;1.60;;
59872;SDS011;50750;51.636;4.948;2023-12-29T02:25:49;3.70;;;1.30;;
59872;SDS011;50750;51.636;4.948;2023-12-29T02:28:24;4.10;;;1.30;;
59872;SDS011;50750;51.636;4.948;2023-12-29T02:31:04;5.20;;;1.30;;
59872;SDS011;50750;51.636;4.948;2023-12-29T02:33:38;4.30;;;1.20;;
59872;SDS011;50750;51.636;4.948;2023-12-29T02:36:15;4.80;;;1.30;;
59872;SDS011;50750;51.636;4.948;2023-12-29T02:38:48;5.20;;;1.40;;
59872;SDS011;50750;51.636;4.948;2023-12-29T02:41:20;5.90;;;1.20;;
59872;SDS011;50750;51.636;4.948;2023-12-29T02:43:52;5.40;;;1.30;;
59872;SDS011;50750;51.636;4.948;2023-12-29T02:46:22;5.40;;;1.30;;
59872;SDS011;50750;51.636;4.948;2023-12-29T02:48:54;3.50;;;1.30;;
59872;SDS011;50750;51.636;4.948;2023-12-29T02:51:24;3.40;;;1.30;;
59872;SDS011;50750;51.636;4.948;2023-12-29T02:53:55;3.60;;;1.30;;
59872;SDS011;50750;51.636;4.948;2023-12-29T02:56:25;4.80;;;1.30;;
59872;SDS011;50750;51.636;4.948;2023-12-29T02:58:58;3.60;;;1.00;;
59872;SDS011;50750;51.636;4.948;2023-12-29T03:01:29;6.80;;;1.40;;
59872;SDS011;50750;51.636;4.948;2023-12-29T03:04:00;5.70;;;1.40;;
59872;SDS011;50750;51.636;4.948;2023-12-29T03:06:30;5.00;;;1.20;;
59872;SDS011;50750;51.636;4.948;2023-12-29T03:09:01;3.60;;;1.00;;
59872;SDS011;50750;51.636;4.948;2023-12-29T03:11:33;5.80;;;1.40;;
59872;SDS011;50750;51.636;4.948;2023-12-29T03:14:04;4.80;;;1.10;;
59872;SDS011;50750;51.636;4.948;2023-12-29T03:16:34;3.40;;;1.00;;
59872;SDS011;50750;51.636;4.948;2023-12-29T03:19:05;4.80;;;1.40;;
59872;SDS011;50750;51.636;4.948;2023-12-29T03:21:37;3.10;;;0.90;;
59872;SDS011;50750;51.636;4.948;2023-12-29T03:24:08;4.30;;;1.30;;
59872;SDS011;50750;51.636;4.948;2023-12-29T03:26:39;5.70;;;1.30;;
59872;SDS011;50750;51.636;4.948;2023-12-29T03:29:09;3.20;;;1.10;;
59872;SDS011;50750;51.636;4.948;2023-12-29T03:31:41;6.50;;;1.30;;
59872;SDS011;50750;51.636;4.948;2023-12-29T03:34:12;4.60;;;1.20;;
59872;SDS011;50750;51.636;4.948;2023-12-29T03:36:43;4.70;;;1.10;;
59872;SDS011;50750;51.636;4.948;2023-12-29T03:39:15;4.10;;;1.10;;
59872;SDS011;50750;51.636;4.948;2023-12-29T03:41:46;6.00;;;1.20;;
59872;SDS011;50750;51.636;4.948;2023-12-29T03:44:16;3.60;;;0.90;;
59872;SDS011;50750;51.636;4.948;2023-12-29T03:46:47;3.80;;;1.50;;
59872;SDS011;50750;51.636;4.948;2023-12-29T03:49:19;4.30;;;1.20;;
59872;SDS011;50750;51.636;4.948;2023-12-29T03:51:51;4.90;;;1.20;;
59872;SDS011;50750;51.636;4.948;2023-12-29T03:54:22;5.00;;;1.10;;
59872;SDS011;50750;51.636;4.948;2023-12-29T03:56:52;4.50;;;1.30;;
59872;SDS011;50750;51.636;4.948;2023-12-29T03:59:23;4.30;;;1.10;;
59872;SDS011;50750;51.636;4.948;2023-12-29T04:01:56;7.40;;;1.50;;
59872;SDS011;50750;51.636;4.948;2023-12-29T04:04:26;8.00;;;1.70;;
59872;SDS011;50750;51.636;4.948;2023-12-29T04:06:58;4.30;;;1.30;;
59872;SDS011;50750;51.636;4.948;2023-12-29T04:09:32;4.30;;;1.20;;
59872;SDS011;50750;51.636;4.948;2023-12-29T04:12:03;4.40;;;1.20;;
59872;SDS011;50750;51.636;4.948;2023-12-29T04:14:35;7.10;;;1.60;;
59872;SDS011;50750;51.636;4.948;2023-12-29T04:17:06;3.90;;;1.30;;
59872;SDS011;50750;51.636;4.948;2023-12-29T04:19:41;4.90;;;1.30;;
59872;SDS011;50750;51.636;4.948;2023-12-29T04:22:12;4.40;;;1.10;;
59872;SDS011;50750;51.636;4.948;2023-12-29T04:24:43;5.70;;;1.40;;
59872;SDS011;50750;51.636;4.948;2023-12-29T04:27:13;5.50;;;1.50;;
59872;SDS011;50750;51.636;4.948;2023-12-29T04:29:44;4.90;;;1.30;;
59872;SDS011;50750;51.636;4.948;2023-12-29T04:32:16;5.70;;;1.40;;
59872;SDS011;50750;51.636;4.948;2023-12-29T04:34:47;9.90;;;1.60;;
59872;SDS011;50750;51.636;4.948;2023-12-29T04:37:18;4.90;;;1.30;;
59872;SDS011;50750;51.636;4.948;2023-12-29T04:39:49;4.90;;;1.10;;
59872;SDS011;50750;51.636;4.948;2023-12-29T04:42:19;4.80;;;1.30;;
59872;SDS011;50750;51.636;4.948;2023-12-29T04:44:50;5.60;;;1.30;;
59872;SDS011;50750;51.636;4.948;2023-12-29T04:47:21;5.60;;;1.30;;
59872;SDS011;50750;51.636;4.948;2023-12-29T04:49:51;5.20;;;1.30;;
59872;SDS011;50750;51.636;4.948;2023-12-29T04:52:22;4.00;;;1.20;;
59872;SDS011;50750;51.636;4.948;2023-12-29T04:54:53;4.50;;;1.60;;
59872;SDS011;50750;51.636;4.948;2023-12-29T04:57:24;6.70;;;1.50;;
59872;SDS011;50750;51.636;4.948;2023-12-29T04:59:54;5.10;;;1.20;;
59872;SDS011;50750;51.636;4.948;2023-12-29T05:02:25;4.70;;;1.20;;
59872;SDS011;50750;51.636;4.948;2023-12-29T05:04:58;7.70;;;1.60;;
59872;SDS011;50750;51.636;4.948;2023-12-29T05:07:29;9.20;;;1.50;;
59872;SDS011;50750;51.636;4.948;2023-12-29T05:10:00;5.80;;;1.30;;
59872;SDS011;50750;51.636;4.948;2023-12-29T05:12:31;6.50;;;1.70;;
59872;SDS011;50750;51.636;4.948;2023-12-29T05:15:02;4.20;;;1.40;;
59872;SDS011;50750;51.636;4.948;2023-12-29T05:17:35;5.80;;;1.30;;
59872;SDS011;50750;51.636;4.948;2023-12-29T05:20:08;7.80;;;1.50;;
59872;SDS011;50750;51.636;4.948;2023-12-29T05:22:41;5.60;;;1.50;;
59872;SDS011;50750;51.636;4.948;2023-12-29T05:25:12;4.40;;;1.10;;
59872;SDS011;50750;51.636;4.948;2023-12-29T05:27:43;6.40;;;1.60;;
59872;SDS011;50750;51.636;4.948;2023-12-29T05:30:14;5.30;;;1.20;;
59872;SDS011;50750;51.636;4.948;2023-12-29T05:32:45;4.80;;;1.10;;
59872;SDS011;50750;51.636;4.948;2023-12-29T05:35:16;4.80;;;1.20;;
59872;SDS011;50750;51.636;4.948;2023-12-29T05:37:46;6.10;;;1.30;;
59872;SDS011;50750;51.636;4.948;2023-12-29T05:40:17;5.50;;;1.40;;
59872;SDS011;50750;51.636;4.948;2023-12-29T05:42:48;5.00;;;1.60;;
59872;SDS011;50750;51.636;4.948;2023-12-29T05:45:20;5.00;;;1.40;;
59872;SDS011;50750;51.636;4.948;2023-12-29T05:47:51;3.20;;;1.10;;
59872;SDS011;50750;51.636;4.948;2023-12-29T05:50:22;6.20;;;1.20;;
59872;SDS011;50750;51.636;4.948;2023-12-29T05:52:53;4.50;;;1.40;;
59872;SDS011;50750;51.636;4.948;2023-12-29T05:55:24;5.60;;;1.30;;
59872;SDS011;50750;51.636;4.948;2023-12-29T05:57:57;3.90;;;1.20;;
59872;SDS011;50750;51.636;4.948;2023-12-29T06:00:28;5.30;;;1.20;;
59872;SDS011;50750;51.636;4.948;2023-12-29T06:02:59;4.00;;;1.10;;
59872;SDS011;50750;51.636;4.948;2023-12-29T06:05:32;4.10;;;1.20;;
59872;SDS011;50750;51.636;4.948;2023-12-29T06:08:06;4.70;;;1.00;;
59872;SDS011;50750;51.636;4.948;2023-12-29T06:10:37;5.60;;;1.20;;
59872;SDS011;50750;51.636;4.948;2023-12-29T06:13:08;5.20;;;1.40;;
59872;SDS011;50750;51.636;4.948;2023-12-29T06:15:38;5.60;;;1.10;;
59872;SDS011;50750;51.636;4.948;2023-12-29T06:18:09;5.00;;;1.10;;
59872;SDS011;50750;51.636;4.948;2023-12-29T06:20:41;3.70;;;0.90;;
59872;SDS011;50750;51.636;4.948;2023-12-29T06:23:12;3.80;;;1.00;;
59872;SDS011;50750;51.636;4.948;2023-12-29T06:25:45;4.70;;;1.00;;
59872;SDS011;50750;51.636;4.948;2023-12-29T06:28:15;4.20;;;1.10;;
59872;SDS011;50750;51.636;4.948;2023-12-29T06:30:46;5.90;;;1.50;;
59872;SDS011;50750;51.636;4.948;2023-12-29T06:33:17;3.90;;;1.20;;
59872;SDS011;50750;51.636;4.948;2023-12-29T06:35:52;4.80;;;1.30;;
59872;SDS011;50750;51.636;4.948;2023-12-29T06:38:22;4.20;;;1.10;;
59872;SDS011;50750;51.636;4.948;2023-12-29T06:40:56;3.80;;;1.00;;
59872;SDS011;50750;51.636;4.948;2023-12-29T06:43:27;4.20;;;0.90;;
59872;SDS011;50750;51.636;4.948;2023-12-29T06:45:57;5.30;;;1.10;;
59872;SDS011;50750;51.636;4.948;2023-12-29T06:48:29;3.30;;;1.00;;
59872;SDS011;50750;51.636;4.948;2023-12-29T06:51:00;4.10;;;1.30;;
59872;SDS011;50750;51.636;4.948;2023-12-29T06:53:32;2.60;;;0.90;;
59872;SDS011;50750;51.636;4.948;2023-12-29T06:56:06;3.70;;;1.10;;
59872;SDS011;50750;51.636;4.948;2023-12-29T06:58:41;2.80;;;1.00;;
59872;SDS011;50750;51.636;4.948;2023-12-29T07:01:12;4.20;;;1.20;;
59872;SDS011;50750;51.636;4.948;2023-12-29T07:03:44;5.20;;;1.40;;
59872;SDS011;50750;51.636;4.948;2023-12-29T07:06:15;5.30;;;1.20;;
59872;SDS011;50750;51.636;4.948;2023-12-29T07:08:46;4.90;;;1.10;;
59872;SDS011;50750;51.636;4.948;2023-12-29T07:11:18;4.30;;;1.10;;
59872;SDS011;50750;51.636;4.948;2023-12-29T07:13:51;5.40;;;1.10;;
59872;SDS011;50750;51.636;4.948;2023-12-29T07:16:22;3.20;;;1.00;;
59872;SDS011;50750;51.636;4.948;2023-12-29T07:18:53;3.80;;;1.00;;
59872;SDS011;50750;51.636;4.948;2023-12-29T07:21:24;4.10;;;0.90;;
59872;SDS011;50750;51.636;4.948;2023-12-29T07:23:55;3.40;;;1.30;;
59872;SDS011;50750;51.636;4.948;2023-12-29T07:26:25;3.30;;;1.10;;
59872;SDS011;50750;51.636;4.948;2023-12-29T07:28:57;2.50;;;0.90;;
59872;SDS011;50750;51.636;4.948;2023-12-29T07:31:29;4.00;;;1.10;;
59872;SDS011;50750;51.636;4.948;2023-12-29T07:34:00;3.90;;;1.10;;
59872;SDS011;50750;51.636;4.948;2023-12-29T07:36:31;6.30;;;1.20;;
59872;SDS011;50750;51.636;4.948;2023-12-29T07:39:06;3.60;;;1.00;;
59872;SDS011;50750;51.636;4.948;2023-12-29T07:41:40;4.10;;;1.10;;
59872;SDS011;50750;51.636;4.948;2023-12-29T07:44:11;5.60;;;1.10;;
59872;SDS011;50750;51.636;4.948;2023-12-29T07:46:43;5.90;;;1.10;;
59872;SDS011;50750;51.636;4.948;2023-12-29T07:49:14;3.50;;;1.10;;
59872;SDS011;50750;51.636;4.948;2023-12-29T07:51:46;3.40;;;0.90;;
59872;SDS011;50750;51.636;4.948;2023-12-29T07:54:17;3.50;;;1.10;;
59872;SDS011;50750;51.636;4.948;2023-12-29T07:56:47;2.90;;;0.90;;
59872;SDS011;50750;51.636;4.948;2023-12-29T07:59:18;4.10;;;1.10;;
59872;SDS011;50750;51.636;4.948;2023-12-29T08:01:49;3.60;;;1.00;;
59872;SDS011;50750;51.636;4.948;2023-12-29T08:04:19;2.70;;;1.00;;
59872;SDS011;50750;51.636;4.948;2023-12-29T08:06:50;4.10;;;1.10;;
59872;SDS011;50750;51.636;4.948;2023-12-29T08:09:20;3.30;;;1.10;;
59872;SDS011;50750;51.636;4.948;2023-12-29T08:11:51;4.80;;;1.20;;
59872;SDS011;50750;51.636;4.948;2023-12-29T08:14:22;3.10;;;1.20;;
59872;SDS011;50750;51.636;4.948;2023-12-29T08:16:55;2.40;;;0.80;;
59872;SDS011;50750;51.636;4.948;2023-12-29T08:19:27;4.00;;;0.90;;
59872;SDS011;50750;51.636;4.948;2023-12-29T08:21:58;3.30;;;0.80;;
59872;SDS011;50750;51.636;4.948;2023-12-29T08:24:30;2.60;;;0.80;;
59872;SDS011;50750;51.636;4.948;2023-12-29T08:27:01;2.90;;;0.90;;
59872;SDS011;50750;51.636;4.948;2023-12-29T08:29:32;3.10;;;0.90;;
59872;SDS011;50750;51.636;4.948;2023-12-29T08:32:03;2.40;;;1.00;;
59872;SDS011;50750;51.636;4.948;2023-12-29T08:34:35;2.90;;;0.90;;
59872;SDS011;50750;51.636;4.948;2023-12-29T08:37:06;3.50;;;1.00;;
59872;SDS011;50750;51.636;4.948;2023-12-29T08:39:37;2.10;;;0.90;;
59872;SDS011;50750;51.636;4.948;2023-12-29T08:42:07;4.00;;;1.00;;
59872;SDS011;50750;51.636;4.948;2023-12-29T08:44:38;3.10;;;0.90;;
59872;SDS011;50750;51.636;4.948;2023-12-29T08:47:09;3.80;;;1.00;;
59872;SDS011;50750;51.636;4.948;2023-12-29T08:49:41;2.90;;;1.10;;
59872;SDS011;50750;51.636;4.948;2023-12-29T08:52:11;2.10;;;0.90;;
59872;SDS011;50750;51.636;4.948;2023-12-29T08:54:43;3.20;;;0.90;;
59872;SDS011;50750;51.636;4.948;2023-12-29T08:57:13;2.70;;;0.80;;
59872;SDS011;50750;51.636;4.948;2023-12-29T08:59:44;2.40;;;1.00;;
59872;SDS011;50750;51.636;4.948;2023-12-29T09:02:16;3.20;;;0.90;;
59872;SDS011;50750;51.636;4.948;2023-12-29T09:04:46;3.40;;;1.10;;
59872;SDS011;50750;51.636;4.948;2023-12-29T09:07:19;2.90;;;0.90;;
59872;SDS011;50750;51.636;4.948;2023-12-29T09:09:50;5.00;;;1.10;;
59872;SDS011;50750;51.636;4.948;2023-12-29T09:12:20;2.90;;;0.90;;
59872;SDS011;50750;51.636;4.948;2023-12-29T09:14:51;3.10;;;0.90;;
59872;SDS011;50750;51.636;4.948;2023-12-29T09:17:21;4.20;;;0.90;;
59872;SDS011;50750;51.636;4.948;2023-12-29T09:19:52;2.30;;;0.80;;
59872;SDS011;50750;51.636;4.948;2023-12-29T09:22:24;2.30;;;0.90;;
59872;SDS011;50750;51.636;4.948;2023-12-29T09:24:55;2.20;;;0.80;;
59872;SDS011;50750;51.636;4.948;2023-12-29T09:27:26;2.80;;;0.90;;
59872;SDS011;50750;51.636;4.948;2023-12-29T09:29:56;1.50;;;0.70;;
59872;SDS011;50750;51.636;4.948;2023-12-29T09:32:28;1.40;;;0.70;;
59872;SDS011;50750;51.636;4.948;2023-12-29T09:34:59;3.00;;;0.80;;
59872;SDS011;50750;51.636;4.948;2023-12-29T09:37:31;2.20;;;0.90;;
59872;SDS011;50750;51.636;4.948;2023-12-29T09:40:02;3.00;;;0.80;;
59872;SDS011;50750;51.636;4.948;2023-12-29T09:42:34;2.00;;;0.90;;
59872;SDS011;50750;51.636;4.948;2023-12-29T09:45:10;1.90;;;0.90;;
59872;SDS011;50750;51.636;4.948;2023-12-29T09:47:42;3.00;;;0.80;;
59872;SDS011;50750;51.636;4.948;2023-12-29T09:50:13;2.20;;;0.70;;
59872;SDS011;50750;51.636;4.948;2023-12-29T09:52:46;1.70;;;0.80;;
59872;SDS011;50750;51.636;4.948;2023-12-29T09:55:21;2.20;;;0.80;;
59872;SDS011;50750;51.636;4.948;2023-12-29T09:57:53;1.50;;;0.70;;
59872;SDS011;50750;51.636;4.948;2023-12-29T10:00:24;1.90;;;0.70;;
59872;SDS011;50750;51.636;4.948;2023-12-29T10:02:56;1.70;;;0.80;;
59872;SDS011;50750;51.636;4.948;2023-12-29T10:05:29;2.30;;;0.80;;
59872;SDS011;50750;51.636;4.948;2023-12-29T10:08:01;1.50;;;0.70;;
59872;SDS011;50750;51.636;4.948;2023-12-29T10:10:34;2.80;;;0.80;;
59872;SDS011;50750;51.636;4.948;2023-12-29T10:13:08;1.80;;;0.70;;
59872;SDS011;50750;51.636;4.948;2023-12-29T10:15:42;2.20;;;0.70;;
59872;SDS011;50750;51.636;4.948;2023-12-29T10:18:21;2.10;;;0.80;;
59872;SDS011;50750;51.636;4.948;2023-12-29T10:20:58;1.60;;;0.90;;
59872;SDS011;50750;51.636;4.948;2023-12-29T10:23:32;1.40;;;0.70;;
59872;SDS011;50750;51.636;4.948;2023-12-29T10:26:05;1.60;;;0.70;;
59872;SDS011;50750;51.636;4.948;2023-12-29T10:28:39;2.10;;;0.70;;
59872;SDS011;50750;51.636;4.948;2023-12-29T10:31:10;2.70;;;0.90;;
59872;SDS011;50750;51.636;4.948;2023-12-29T10:33:45;1.80;;;0.90;;
59872;SDS011;50750;51.636;4.948;2023-12-29T10:36:19;1.80;;;0.80;;
59872;SDS011;50750;51.636;4.948;2023-12-29T10:38:50;2.40;;;0.90;;
59872;SDS011;50750;51.636;4.948;2023-12-29T10:41:37;1.70;;;0.80;;
59872;SDS011;50750;51.636;4.948;2023-12-29T10:44:08;2.80;;;0.80;;
59872;SDS011;50750;51.636;4.948;2023-12-29T10:46:39;2.10;;;0.50;;
59872;SDS011;50750;51.636;4.948;2023-12-29T10:49:10;1.60;;;0.70;;
59872;SDS011;50750;51.636;4.948;2023-12-29T10:51:41;2.90;;;0.80;;
59872;SDS011;50750;51.636;4.948;2023-12-29T10:54:18;2.90;;;0.80;;
59872;SDS011;50750;51.636;4.948;2023-12-29T10:57:01;2.90;;;0.90;;
59872;SDS011;50750;51.636;4.948;2023-12-29T10:59:32;2.80;;;0.80;;
59872;SDS011;50750;51.636;4.948;2023-12-29T11:02:03;2.20;;;0.80;;
59872;SDS011;50750;51.636;4.948;2023-12-29T11:04:36;2.10;;;0.70;;
59872;SDS011;50750;51.636;4.948;2023-12-29T11:07:09;3.40;;;0.90;;
59872;SDS011;50750;51.636;4.948;2023-12-29T11:09:42;2.90;;;0.90;;
59872;SDS011;50750;51.636;4.948;2023-12-29T11:12:14;2.30;;;0.70;;
59872;SDS011;50750;51.636;4.948;2023-12-29T11:14:46;2.30;;;0.80;;
59872;SDS011;50750;51.636;4.948;2023-12-29T11:17:17;2.30;;;0.70;;
59872;SDS011;50750;51.636;4.948;2023-12-29T11:19:50;2.50;;;0.80;;
59872;SDS011;50750;51.636;4.948;2023-12-29T11:22:21;3.90;;;1.00;;
59872;SDS011;50750;51.636;4.948;2023-12-29T11:24:53;4.20;;;1.00;;
59872;SDS011;50750;51.636;4.948;2023-12-29T11:27:26;4.30;;;1.30;;
59872;SDS011;50750;51.636;4.948;2023-12-29T11:29:58;2.90;;;0.80;;
59872;SDS011;50750;51.636;4.948;2023-12-29T11:32:32;3.60;;;0.80;;
59872;SDS011;50750;51.636;4.948;2023-12-29T11:35:13;3.10;;;0.90;;
59872;SDS011;50750;51.636;4.948;2023-12-29T11:37:57;3.10;;;1.10;;
59872;SDS011;50750;51.636;4.948;2023-12-29T11:40:39;2.70;;;0.80;;
59872;SDS011;50750;51.636;4.948;2023-12-29T11:43:16;2.90;;;0.80;;
59872;SDS011;50750;51.636;4.948;2023-12-29T11:45:49;2.60;;;0.80;;
59872;SDS011;50750;51.636;4.948;2023-12-29T11:54:04;3.80;;;1.00;;
59872;SDS011;50750;51.636;4.948;2023-12-29T11:56:36;4.10;;;0.90;;
59872;SDS011;50750;51.636;4.948;2023-12-29T11:59:17;2.30;;;0.90;;
59872;SDS011;50750;51.636;4.948;2023-12-29T12:01:50;3.20;;;1.00;;
59872;SDS011;50750;51.636;4.948;2023-12-29T12:04:35;2.90;;;1.00;;
59872;SDS011;50750;51.636;4.948;2023-12-29T12:07:10;4.60;;;0.90;;
59872;SDS011;50750;51.636;4.948;2023-12-29T12:09:44;2.50;;;0.90;;
59872;SDS011;50750;51.636;4.948;2023-12-29T12:12:37;3.10;;;0.80;;
59872;SDS011;50750;51.636;4.948;2023-12-29T12:18:03;2.50;;;0.90;;
59872;SDS011;50750;51.636;4.948;2023-12-29T12:20:37;2.80;;;0.90;;
59872;SDS011;50750;51.636;4.948;2023-12-29T12:23:12;2.10;;;0.90;;
59872;SDS011;50750;51.636;4.948;2023-12-29T12:25:47;2.90;;;0.90;;
59872;SDS011;50750;51.636;4.948;2023-12-29T12:28:27;5.30;;;1.00;;
59872;SDS011;50750;51.636;4.948;2023-12-29T12:31:05;3.60;;;0.90;;
59872;SDS011;50750;51.636;4.948;2023-12-29T12:33:37;2.90;;;0.80;;
59872;SDS011;50750;51.636;4.948;2023-12-29T12:36:09;2.60;;;0.90;;
59872;SDS011;50750;51.636;4.948;2023-12-29T12:41:26;2.50;;;0.80;;
59872;SDS011;50750;51.636;4.948;2023-12-29T12:43:59;3.80;;;1.00;;
59872;SDS011;50750;51.636;4.948;2023-12-29T12:46:41;3.30;;;0.90;;
59872;SDS011;50750;51.636;4.948;2023-12-29T12:49:18;5.20;;;1.00;;
59872;SDS011;50750;51.636;4.948;2023-12-29T12:51:52;2.90;;;0.90;;
59872;SDS011;50750;51.636;4.948;2023-12-29T12:54:23;2.90;;;0.90;;
59872;SDS011;50750;51.636;4.948;2023-12-29T12:56:54;3.00;;;1.00;;
59872;SDS011;50750;51.636;4.948;2023-12-29T12:59:24;3.30;;;1.00;;
59872;SDS011;50750;51.636;4.948;2023-12-29T13:01:58;2.60;;;0.90;;
59872;SDS011;50750;51.636;4.948;2023-12-29T13:04:30;3.20;;;1.00;;
59872;SDS011;50750;51.636;4.948;2023-12-29T13:07:04;3.40;;;0.90;;
59872;SDS011;50750;51.636;4.948;2023-12-29T13:09:36;4.00;;;1.20;;
59872;SDS011;50750;51.636;4.948;2023-12-29T13:12:11;2.20;;;0.90;;
59872;SDS011;50750;51.636;4.948;2023-12-29T13:14:43;2.30;;;1.00;;
59872;SDS011;50750;51.636;4.948;2023-12-29T13:17:15;3.40;;;1.20;;
59872;SDS011;50750;51.636;4.948;2023-12-29T13:19:53;2.50;;;0.90;;
59872;SDS011;50750;51.636;4.948;2023-12-29T13:22:26;2.90;;;0.90;;
59872;SDS011;50750;51.636;4.948;2023-12-29T13:24:58;2.70;;;1.00;;
59872;SDS011;50750;51.636;4.948;2023-12-29T13:27:35;3.30;;;1.10;;
59872;SDS011;50750;51.636;4.948;2023-12-29T13:30:09;3.60;;;1.10;;
59872;SDS011;50750;51.636;4.948;2023-12-29T13:32:42;2.50;;;1.10;;
59872;SDS011;50750;51.636;4.948;2023-12-29T13:35:18;3.70;;;1.10;;
59872;SDS011;50750;51.636;4.948;2023-12-29T13:37:54;2.30;;;0.90;;
59872;SDS011;50750;51.636;4.948;2023-12-29T13:40:42;2.70;;;1.00;;
59872;SDS011;50750;51.636;4.948;2023-12-29T13:43:21;2.30;;;0.90;;
59872;SDS011;50750;51.636;4.948;2023-12-29T13:45:52;2.50;;;1.10;;
59872;SDS011;50750;51.636;4.948;2023-12-29T13:48:23;3.70;;;1.20;;
59872;SDS011;50750;51.636;4.948;2023-12-29T13:50:55;2.30;;;1.10;;
59872;SDS011;50750;51.636;4.948;2023-12-29T13:53:27;2.80;;;1.00;;
59872;SDS011;50750;51.636;4.948;2023-12-29T13:56:06;5.00;;;1.10;;
59872;SDS011;50750;51.636;4.948;2023-12-29T13:58:39;3.00;;;1.20;;
59872;SDS011;50750;51.636;4.948;2023-12-29T14:01:10;2.20;;;0.80;;
59872;SDS011;50750;51.636;4.948;2023-12-29T14:03:43;2.40;;;1.10;;
59872;SDS011;50750;51.636;4.948;2023-12-29T14:06:29;3.10;;;0.90;;
59872;SDS011;50750;51.636;4.948;2023-12-29T14:09:06;3.20;;;1.20;;
59872;SDS011;50750;51.636;4.948;2023-12-29T14:11:44;2.10;;;0.90;;
59872;SDS011;50750;51.636;4.948;2023-12-29T14:14:22;2.30;;;0.90;;
59872;SDS011;50750;51.636;4.948;2023-12-29T14:16:54;2.20;;;0.90;;
59872;SDS011;50750;51.636;4.948;2023-12-29T14:19:25;3.40;;;1.70;;
59872;SDS011;50750;51.636;4.948;2023-12-29T14:22:02;3.90;;;1.00;;
59872;SDS011;50750;51.636;4.948;2023-12-29T14:24:33;2.40;;;1.00;;
59872;SDS011;50750;51.636;4.948;2023-12-29T14:27:05;3.50;;;1.00;;
59872;SDS011;50750;51.636;4.948;2023-12-29T14:29:41;3.60;;;1.10;;
59872;SDS011;50750;51.636;4.948;2023-12-29T14:32:14;1.90;;;1.00;;
59872;SDS011;50750;51.636;4.948;2023-12-29T14:34:48;3.00;;;1.10;;
59872;SDS011;50750;51.636;4.948;2023-12-29T14:37:20;2.60;;;0.80;;
59872;SDS011;50750;51.636;4.948;2023-12-29T14:39:51;2.10;;;0.80;;
59872;SDS011;50750;51.636;4.948;2023-12-29T14:42:22;2.20;;;1.00;;
59872;SDS011;50750;51.636;4.948;2023-12-29T14:44:53;2.90;;;1.00;;
59872;SDS011;50750;51.636;4.948;2023-12-29T14:47:23;2.70;;;1.10;;
59872;SDS011;50750;51.636;4.948;2023-12-29T14:49:54;4.40;;;0.90;;
59872;SDS011;50750;51.636;4.948;2023-12-29T14:52:27;3.40;;;1.00;;
59872;SDS011;50750;51.636;4.948;2023-12-29T14:54:57;2.80;;;1.00;;
59872;SDS011;50750;51.636;4.948;2023-12-29T14:57:28;2.10;;;0.90;;
59872;SDS011;50750;51.636;4.948;2023-12-29T14:59:59;2.90;;;0.90;;
59872;SDS011;50750;51.636;4.948;2023-12-29T15:02:32;1.80;;;0.80;;
59872;SDS011;50750;51.636;4.948;2023-12-29T15:05:03;2.40;;;1.00;;
59872;SDS011;50750;51.636;4.948;2023-12-29T15:07:34;2.80;;;0.80;;
59872;SDS011;50750;51.636;4.948;2023-12-29T15:10:06;3.00;;;1.10;;
59872;SDS011;50750;51.636;4.948;2023-12-29T15:12:37;3.30;;;0.90;;
59872;SDS011;50750;51.636;4.948;2023-12-29T15:15:11;2.70;;;0.90;;
59872;SDS011;50750;51.636;4.948;2023-12-29T15:17:42;2.80;;;0.90;;
59872;SDS011;50750;51.636;4.948;2023-12-29T15:20:12;1.80;;;0.80;;
59872;SDS011;50750;51.636;4.948;2023-12-29T15:22:43;2.40;;;1.00;;
59872;SDS011;50750;51.636;4.948;2023-12-29T15:25:14;2.00;;;0.90;;
59872;SDS011;50750;51.636;4.948;2023-12-29T15:27:45;2.50;;;1.00;;
59872;SDS011;50750;51.636;4.948;2023-12-29T15:30:15;2.20;;;0.90;;